createdAt,value
2022-08-22T00:01:22.143Z,25.62
2022-08-22T00:02:41.709Z,27.53
2022-08-22T00:02:49.418Z,26.27
2022-08-22T00:02:57.968Z,25.59
2022-08-22T00:03:53.879Z,25.60
2022-08-22T00:06:20.433Z,25.55
2022-08-22T00:08:30.741Z,25.57
2022-08-22T00:11:06.510Z,25.55
2022-08-22T00:13:18.597Z,25.52
2022-08-22T00:15:42.264Z,25.49
2022-08-22T00:18:27.865Z,25.46
2022-08-22T00:20:41.798Z,25.47
2022-08-22T00:23:12.058Z,25.42
2022-08-22T00:25:58.639Z,25.38
2022-08-22T00:28:14.198Z,25.44
2022-08-22T00:30:18.576Z,25.43
2022-08-22T00:32:29.111Z,25.39
2022-08-22T00:34:48.645Z,25.36
2022-08-22T00:37:06.862Z,25.40
2022-08-22T00:39:30.215Z,25.34
2022-08-22T00:41:58.228Z,25.26
2022-08-22T00:44:22.377Z,25.30
2022-08-22T00:46:55.904Z,25.24
2022-08-22T00:49:03.659Z,25.22
2022-08-22T00:51:46.682Z,25.21
2022-08-22T00:53:58.585Z,25.26
2022-08-22T00:56:21.781Z,25.25
2022-08-22T00:58:41.771Z,25.24
2022-08-22T01:00:54.691Z,25.24
2022-08-22T01:03:02.910Z,25.27
2022-08-22T01:05:49.134Z,25.20
2022-08-22T01:08:28.680Z,25.23
2022-08-22T01:10:33.741Z,25.27
2022-08-22T01:12:54.622Z,25.27
2022-08-22T01:15:07.447Z,25.23
2022-08-22T01:17:31.358Z,25.12
2022-08-22T01:19:43.409Z,25.18
2022-08-22T01:22:07.765Z,25.17
2022-08-22T01:24:27.498Z,25.19
2022-08-22T01:26:58.317Z,25.16
2022-08-22T01:29:19.140Z,25.20
2022-08-22T01:32:09.899Z,25.19
2022-08-22T01:35:00.361Z,25.19
2022-08-22T01:37:14.995Z,25.17
2022-08-22T01:39:40.627Z,25.20
2022-08-22T01:42:01.267Z,25.19
2022-08-22T01:44:34.158Z,25.20
2022-08-22T01:46:54.001Z,25.15
2022-08-22T01:49:06.648Z,25.09
2022-08-22T01:51:28.510Z,25.16
2022-08-22T01:54:11.088Z,25.17
2022-08-22T01:56:18.451Z,25.20
2022-08-22T01:58:25.220Z,25.15
2022-08-22T02:00:35.298Z,25.19
2022-08-22T02:03:07.489Z,25.15
2022-08-22T02:05:37.507Z,25.15
2022-08-22T02:07:48.602Z,25.17
2022-08-22T02:10:05.515Z,25.15
2022-08-22T02:12:21.897Z,25.19
2022-08-22T02:14:33.152Z,25.13
2022-08-22T02:17:07.530Z,25.03
2022-08-22T02:19:15.924Z,24.94
2022-08-22T02:21:47.326Z,24.89
2022-08-22T02:24:05.807Z,24.73
2022-08-22T02:26:17.034Z,24.70
2022-08-22T02:28:57.479Z,24.59
2022-08-22T02:31:12.149Z,24.62
2022-08-22T02:33:43.039Z,24.61
2022-08-22T02:36:16.256Z,24.62
2022-08-22T02:38:47.444Z,24.62
2022-08-22T02:40:52.976Z,24.67
2022-08-22T02:43:19.194Z,24.58
2022-08-22T02:45:46.390Z,24.61
2022-08-22T02:47:51.387Z,24.63
2022-08-22T02:50:23.754Z,24.61
2022-08-22T02:53:03.196Z,24.50
2022-08-22T02:55:38.010Z,24.41
2022-08-22T02:58:04.853Z,24.41
2022-08-22T03:00:31.289Z,24.28
2022-08-22T03:02:39.580Z,24.27
2022-08-22T03:04:41.651Z,24.32
2022-08-22T03:06:59.677Z,24.28
2022-08-22T03:09:16.954Z,24.26
2022-08-22T03:11:29.758Z,24.30
2022-08-22T03:13:56.282Z,24.30
2022-08-22T03:16:07.051Z,24.24
2022-08-22T03:18:44.629Z,24.23
2022-08-22T03:20:59.375Z,24.19
2022-08-22T03:23:10.028Z,24.19
2022-08-22T03:25:25.636Z,24.21
2022-08-22T03:27:34.805Z,24.21
2022-08-22T03:29:44.289Z,24.18
2022-08-22T03:32:11.873Z,24.16
2022-08-22T03:34:27.383Z,24.15
2022-08-22T03:36:31.503Z,24.17
2022-08-22T03:38:33.467Z,24.21
2022-08-22T03:40:58.256Z,24.15
2022-08-22T03:43:54.189Z,24.17
2022-08-22T03:46:21.720Z,24.20
2022-08-22T03:48:42.461Z,24.22
2022-08-22T03:51:21.413Z,24.17
2022-08-22T03:53:32.351Z,24.26
2022-08-22T03:56:11.725Z,24.24
2022-08-22T03:58:38.710Z,24.17
2022-08-22T04:00:56.688Z,24.17
2022-08-22T04:03:22.620Z,24.19
2022-08-22T04:06:02.266Z,24.20
2022-08-22T04:08:16.527Z,24.17
2022-08-22T04:10:56.636Z,24.20
2022-08-22T04:13:24.765Z,24.21
2022-08-22T04:15:45.857Z,24.21
2022-08-22T04:17:54.315Z,24.29
2022-08-22T04:20:09.800Z,24.30
2022-08-22T04:22:38.057Z,24.29
2022-08-22T04:24:56.727Z,24.30
2022-08-22T04:27:19.303Z,24.27
2022-08-22T04:29:30.938Z,24.35
2022-08-22T04:31:46.397Z,24.33
2022-08-22T04:34:01.131Z,24.32
2022-08-22T04:36:22.083Z,24.32
2022-08-22T04:38:30.147Z,24.31
2022-08-22T04:40:43.770Z,24.25
2022-08-22T04:43:22.081Z,24.22
2022-08-22T04:45:52.365Z,24.21
2022-08-22T04:48:07.469Z,24.18
2022-08-22T04:50:22.342Z,24.24
2022-08-22T04:52:43.081Z,24.29
2022-08-22T04:54:57.570Z,24.29
2022-08-22T04:57:28.432Z,24.31
2022-08-22T04:59:31.291Z,24.32
2022-08-22T05:01:55.586Z,24.31
2022-08-22T05:04:13.341Z,24.22
2022-08-22T05:06:19.295Z,24.34
2022-08-22T05:08:31.441Z,24.37
2022-08-22T05:10:42.984Z,24.40
2022-08-22T05:13:00.876Z,24.41
2022-08-22T05:15:10.332Z,24.47
2022-08-22T05:17:21.486Z,24.50
2022-08-22T05:19:32.230Z,24.54
2022-08-22T05:21:41.080Z,24.57
2022-08-22T05:24:14.316Z,24.55
2022-08-22T05:26:18.868Z,24.58
2022-08-22T05:28:39.011Z,24.54
2022-08-22T05:30:43.437Z,24.58
2022-08-22T05:33:09.997Z,24.43
2022-08-22T05:35:12.572Z,24.51
2022-08-22T05:37:20.513Z,24.55
2022-08-22T05:39:28.045Z,24.61
2022-08-22T05:41:38.411Z,24.59
2022-08-22T05:43:43.877Z,24.66
2022-08-22T05:45:48.216Z,24.62
2022-08-22T05:47:59.951Z,24.67
2022-08-22T05:50:13.038Z,24.65
2022-08-22T05:52:46.028Z,24.60
2022-08-22T05:55:01.525Z,24.61
2022-08-22T05:57:37.150Z,24.54
2022-08-22T05:59:43.616Z,24.63
2022-08-22T06:01:58.034Z,24.72
2022-08-22T06:04:15.468Z,24.70
2022-08-22T06:06:20.008Z,24.80
2022-08-22T06:08:23.670Z,24.84
2022-08-22T06:10:43.998Z,24.74
2022-08-22T06:12:59.900Z,24.76
2022-08-22T06:15:12.539Z,24.80
2022-08-22T06:17:25.517Z,24.79
2022-08-22T06:19:28.939Z,24.89
2022-08-22T06:21:38.668Z,24.87
2022-08-22T06:23:48.119Z,24.85
2022-08-22T06:25:55.262Z,24.90
2022-08-22T06:28:02.699Z,24.92
2022-08-22T06:30:07.285Z,24.99
2022-08-22T06:32:58.330Z,24.91
2022-08-22T06:35:10.828Z,25.00
2022-08-22T06:37:31.823Z,25.06
2022-08-22T06:39:37.511Z,25.09
2022-08-22T06:41:45.403Z,25.11
2022-08-22T06:43:53.007Z,25.27
2022-08-22T06:45:55.860Z,25.36
2022-08-22T06:48:16.976Z,25.37
2022-08-22T06:50:31.181Z,25.52
2022-08-22T06:52:37.839Z,25.67
2022-08-22T06:54:45.568Z,25.79
2022-08-22T06:56:51.285Z,25.92
2022-08-22T06:58:58.538Z,25.97
2022-08-22T07:01:12.188Z,26.13
2022-08-22T07:03:43.807Z,26.11
2022-08-22T07:05:47.856Z,26.27
2022-08-22T07:07:51.404Z,26.25
2022-08-22T07:09:57.920Z,26.23
2022-08-22T07:12:03.461Z,26.30
2022-08-22T07:14:12.305Z,26.35
2022-08-22T07:16:15.559Z,26.47
2022-08-22T07:18:21.800Z,26.45
2022-08-22T07:20:28.757Z,26.53
2022-08-22T07:22:35.428Z,26.58
2022-08-22T07:24:48.404Z,26.66
2022-08-22T07:27:10.112Z,26.75
2022-08-22T07:29:23.148Z,26.88
2022-08-22T07:31:34.811Z,26.89
2022-08-22T07:33:48.855Z,26.92
2022-08-22T07:36:05.261Z,27.04
2022-08-22T07:38:43.132Z,27.00
2022-08-22T07:41:16.489Z,27.00
2022-08-22T07:43:46.710Z,27.06
2022-08-22T07:45:57.069Z,27.13
2022-08-22T07:48:24.862Z,26.91
2022-08-22T07:50:36.699Z,27.05
2022-08-22T07:53:10.006Z,27.00
2022-08-22T07:55:26.397Z,27.09
2022-08-22T07:57:33.452Z,27.25
2022-08-22T07:59:41.187Z,27.29
2022-08-22T08:01:51.409Z,27.29
2022-08-22T08:04:01.912Z,27.30
2022-08-22T08:06:05.098Z,27.27
2022-08-22T08:08:20.251Z,27.23
2022-08-22T08:10:28.644Z,27.29
2022-08-22T08:12:40.365Z,27.42
2022-08-22T08:14:46.432Z,27.51
2022-08-22T08:17:03.808Z,27.57
2022-08-22T08:19:08.465Z,27.70
2022-08-22T08:21:34.329Z,27.78
2022-08-22T08:23:46.501Z,27.87
2022-08-22T08:25:55.036Z,27.94
2022-08-22T08:28:19.988Z,28.05
2022-08-22T08:30:32.416Z,28.12
2022-08-22T08:32:38.038Z,28.18
2022-08-22T08:34:46.996Z,28.25
2022-08-22T08:36:55.436Z,28.22
2022-08-22T08:39:35.004Z,28.21
2022-08-22T08:41:49.430Z,28.15
2022-08-22T08:43:57.253Z,28.18
2022-08-22T08:46:26.274Z,28.25
2022-08-22T08:48:47.404Z,28.28
2022-08-22T08:51:09.274Z,28.33
2022-08-22T08:56:07.198Z,28.59
2022-08-22T08:58:40.144Z,28.57
2022-08-22T09:00:46.017Z,28.70
2022-08-22T09:03:21.162Z,28.71
2022-08-22T09:05:53.064Z,28.71
2022-08-22T09:08:01.765Z,28.80
2022-08-22T09:10:27.390Z,28.74
2022-08-22T09:13:12.245Z,28.74
2022-08-22T09:15:38.993Z,28.74
2022-08-22T09:17:44.566Z,28.75
2022-08-22T09:22:27.905Z,28.96
2022-08-22T09:25:15.154Z,28.97
2022-08-22T09:27:50.190Z,29.01
2022-08-22T09:30:02.637Z,29.12
2022-08-22T09:35:22.437Z,29.16
2022-08-22T09:37:55.747Z,29.21
2022-08-22T09:40:06.340Z,29.24
2022-08-22T09:40:16.672Z,28.83
2022-08-22T09:42:38.778Z,29.25
2022-08-22T09:45:11.908Z,29.28
2022-08-22T09:47:41.971Z,29.26
2022-08-22T09:49:45.093Z,29.35
2022-08-22T09:52:34.233Z,29.36
2022-08-22T09:54:48.674Z,29.40
2022-08-22T09:57:01.756Z,29.43
2022-08-22T09:59:14.817Z,29.57
2022-08-22T10:01:33.583Z,29.70
2022-08-22T10:04:13.419Z,29.77
2022-08-22T10:06:27.769Z,29.90
2022-08-22T10:08:50.750Z,29.89
2022-08-22T10:11:12.041Z,29.91
2022-08-22T10:13:33.080Z,29.90
2022-08-22T10:16:02.196Z,29.80
2022-08-22T10:18:28.985Z,29.80
2022-08-22T10:20:44.761Z,29.89
2022-08-22T10:23:15.058Z,29.91
2022-08-22T10:25:34.963Z,30.02
2022-08-22T10:28:17.992Z,30.05
2022-08-22T10:30:31.252Z,30.12
2022-08-22T10:33:03.855Z,30.06
2022-08-22T10:35:19.990Z,30.17
2022-08-22T10:37:36.817Z,30.23
2022-08-22T10:39:57.932Z,30.24
2022-08-22T10:42:28.200Z,30.24
2022-08-22T10:44:56.683Z,30.21
2022-08-22T10:47:24.416Z,30.23
2022-08-22T10:49:35.387Z,30.26
2022-08-22T10:52:00.062Z,30.23
2022-08-22T10:54:29.893Z,30.22
2022-08-22T10:56:40.613Z,30.28
2022-08-22T10:58:56.396Z,30.23
2022-08-22T11:01:37.824Z,30.21
2022-08-22T11:03:35.485Z,30.17
2022-08-22T11:05:50.034Z,30.11
2022-08-22T11:07:56.215Z,30.06
2022-08-22T11:10:09.579Z,29.94
2022-08-22T11:12:28.183Z,29.79
2022-08-22T11:15:34.384Z,29.77
2022-08-22T11:18:05.381Z,29.70
2022-08-22T11:20:21.351Z,29.71
2022-08-22T11:22:33.787Z,29.76
2022-08-22T11:25:06.862Z,29.77
2022-08-22T11:27:39.531Z,29.80
2022-08-22T11:30:02.303Z,29.87
2022-08-22T11:32:29.802Z,29.84
2022-08-22T11:34:50.129Z,29.94
2022-08-22T11:37:15.176Z,29.91
2022-08-22T11:39:34.203Z,30.01
2022-08-22T11:41:52.545Z,29.94
2022-08-22T11:44:03.413Z,29.84
2022-08-22T11:46:28.233Z,29.79
2022-08-22T11:48:47.386Z,29.81
2022-08-22T11:51:13.396Z,29.86
2022-08-22T11:53:28.356Z,29.89
2022-08-22T11:55:35.261Z,29.95
2022-08-22T11:57:45.160Z,30.00
2022-08-22T12:00:13.895Z,29.99
2022-08-22T12:02:27.258Z,30.05
2022-08-22T12:04:42.502Z,30.06
2022-08-22T12:07:12.869Z,30.06
2022-08-22T12:10:07.557Z,30.04
2022-08-22T12:12:21.615Z,29.98
2022-08-22T12:14:50.090Z,29.76
2022-08-22T12:17:55.081Z,29.50
2022-08-22T12:20:15.073Z,29.43
2022-08-22T12:22:55.523Z,29.31
2022-08-22T12:25:17.980Z,29.15
2022-08-22T12:27:47.973Z,28.94
2022-08-22T12:30:14.239Z,28.60
2022-08-22T12:32:36.565Z,28.27
2022-08-22T12:35:13.513Z,28.08
2022-08-22T12:37:52.273Z,27.92
2022-08-22T12:40:36.570Z,27.71
2022-08-22T12:43:10.444Z,27.62
2022-08-22T12:45:50.715Z,27.49
2022-08-22T12:48:12.249Z,27.32
2022-08-22T12:50:35.874Z,27.19
2022-08-22T12:52:47.032Z,27.11
2022-08-22T12:55:25.043Z,27.13
2022-08-22T12:57:37.203Z,27.07
2022-08-22T12:59:45.350Z,26.93
2022-08-22T13:01:51.469Z,26.80
2022-08-22T13:04:01.377Z,26.78
2022-08-22T13:06:25.395Z,26.80
2022-08-22T13:08:37.217Z,26.87
2022-08-22T13:10:51.283Z,26.87
2022-08-22T13:12:56.981Z,26.96
2022-08-22T13:15:16.774Z,27.09
2022-08-22T13:17:24.997Z,27.18
2022-08-22T13:19:32.278Z,27.27
2022-08-22T13:21:43.398Z,27.32
2022-08-22T13:23:53.920Z,27.38
2022-08-22T13:26:31.588Z,27.45
2022-08-22T13:31:39.321Z,27.62
2022-08-22T13:33:48.044Z,27.64
2022-08-22T13:35:56.468Z,27.64
2022-08-22T13:38:12.255Z,27.69
2022-08-22T13:40:27.293Z,27.75
2022-08-22T13:42:36.490Z,27.77
2022-08-22T13:44:48.460Z,27.76
2022-08-22T13:47:12.939Z,27.72
2022-08-22T13:49:19.860Z,27.64
2022-08-22T13:51:28.813Z,27.72
2022-08-22T13:53:50.015Z,27.66
2022-08-22T13:56:15.636Z,27.70
2022-08-22T13:58:42.244Z,27.69
2022-08-22T14:01:14.283Z,27.75
2022-08-22T14:03:22.364Z,27.78
2022-08-22T14:05:41.632Z,27.77
2022-08-22T14:08:12.703Z,27.83
2022-08-22T14:10:29.636Z,27.85
2022-08-22T14:12:50.162Z,27.96
2022-08-22T14:14:59.651Z,27.97
2022-08-22T14:17:02.955Z,28.06
2022-08-22T14:19:29.508Z,28.13
2022-08-22T14:21:41.400Z,28.15
2022-08-22T14:23:45.099Z,28.23
2022-08-22T14:25:48.445Z,28.22
2022-08-22T14:27:52.542Z,28.20
2022-08-22T14:30:01.757Z,28.29
2022-08-22T14:32:32.255Z,28.38
2022-08-22T14:34:45.375Z,28.47
2022-08-22T14:36:56.585Z,28.56
2022-08-22T14:39:31.718Z,28.64
2022-08-22T14:41:57.963Z,28.73
2022-08-22T14:44:39.511Z,28.73
2022-08-22T14:46:52.160Z,28.72
2022-08-22T14:49:16.200Z,28.72
2022-08-22T14:51:26.824Z,28.70
2022-08-22T14:53:35.037Z,28.67
2022-08-22T14:55:39.974Z,28.66
2022-08-22T14:57:51.181Z,28.70
2022-08-22T14:59:54.686Z,28.77
2022-08-22T15:02:01.952Z,28.79
2022-08-22T15:04:18.839Z,28.81
2022-08-22T15:06:38.261Z,28.81
2022-08-22T15:08:50.945Z,28.87
2022-08-22T15:11:31.891Z,28.87
2022-08-22T15:13:36.179Z,28.99
2022-08-22T15:15:52.576Z,29.01
2022-08-22T15:17:55.842Z,29.05
2022-08-22T15:20:22.744Z,29.03
2022-08-22T15:22:29.810Z,29.13
2022-08-22T15:24:32.894Z,29.11
2022-08-22T15:26:40.553Z,29.13
2022-08-22T15:28:52.464Z,29.17
2022-08-22T15:31:05.463Z,29.21
2022-08-22T15:33:10.602Z,29.26
2022-08-22T15:35:39.128Z,29.26
2022-08-22T15:38:31.608Z,29.30
2022-08-22T15:40:36.665Z,29.34
2022-08-22T15:42:49.033Z,29.34
2022-08-22T15:44:55.079Z,29.36
2022-08-22T15:47:02.689Z,29.33
2022-08-22T15:49:19.541Z,29.28
2022-08-22T15:51:48.029Z,29.31
2022-08-22T15:54:03.443Z,29.35
2022-08-22T15:56:26.185Z,29.40
2022-08-22T15:58:28.571Z,29.44
2022-08-22T16:00:34.725Z,29.45
2022-08-22T16:02:55.903Z,29.39
2022-08-22T16:05:10.410Z,29.45
2022-08-22T16:07:39.747Z,29.40
2022-08-22T16:09:47.578Z,29.43
2022-08-22T16:11:55.704Z,29.40
2022-08-22T16:14:21.903Z,29.33
2022-08-22T16:16:26.492Z,29.35
2022-08-22T16:18:34.507Z,29.30
2022-08-22T16:20:36.256Z,29.32
2022-08-22T16:22:56.702Z,29.24
2022-08-22T16:25:01.645Z,29.28
2022-08-22T16:27:22.742Z,29.22
2022-08-22T16:29:41.165Z,29.23
2022-08-22T16:31:46.471Z,29.23
2022-08-22T16:33:48.426Z,29.24
2022-08-22T16:36:14.897Z,29.06
2022-08-22T16:38:36.732Z,29.05
2022-08-22T16:40:48.610Z,29.00
2022-08-22T16:43:09.895Z,29.01
2022-08-22T16:45:14.478Z,28.98
2022-08-22T16:47:19.298Z,28.96
2022-08-22T16:49:32.202Z,28.94
2022-08-22T16:51:34.271Z,28.95
2022-08-22T16:53:39.018Z,28.95
2022-08-22T16:56:05.787Z,28.86
2022-08-22T16:58:40.040Z,28.86
2022-08-22T17:01:03.441Z,28.82
2022-08-22T17:03:29.272Z,28.83
2022-08-22T17:06:17.523Z,28.74
2022-08-22T17:08:28.093Z,28.71
2022-08-22T17:10:48.130Z,28.62
2022-08-22T17:13:06.379Z,28.48
2022-08-22T17:15:08.291Z,28.47
2022-08-22T17:17:22.504Z,28.38
2022-08-22T17:19:59.980Z,28.33
2022-08-22T17:22:11.054Z,28.37
2022-08-22T17:24:33.970Z,28.27
2022-08-22T17:26:55.715Z,28.26
2022-08-22T17:29:03.704Z,28.29
2022-08-22T17:31:24.946Z,28.24
2022-08-22T17:33:33.410Z,28.28
2022-08-22T17:36:04.409Z,28.21
2022-08-22T17:38:45.423Z,28.16
2022-08-22T17:41:14.354Z,28.10
2022-08-22T17:43:18.522Z,28.12
2022-08-22T17:45:35.375Z,28.02
2022-08-22T17:47:49.832Z,28.04
2022-08-22T17:50:00.900Z,28.02
2022-08-22T17:52:32.582Z,28.00
2022-08-22T17:55:06.623Z,27.87
2022-08-22T17:57:24.903Z,27.87
2022-08-22T17:59:37.252Z,27.84
2022-08-22T18:02:18.949Z,27.83
2022-08-22T18:04:33.554Z,27.86
2022-08-22T18:06:44.219Z,27.83
2022-08-22T18:11:43.163Z,27.72
2022-08-22T18:13:59.138Z,27.75
2022-08-22T18:16:29.533Z,27.67
2022-08-22T18:18:37.447Z,27.71
2022-08-22T18:20:57.448Z,27.67
2022-08-22T18:23:15.324Z,27.61
2022-08-22T18:25:23.642Z,27.54
2022-08-22T18:27:30.045Z,27.56
2022-08-22T18:29:49.733Z,27.53
2022-08-22T18:32:17.072Z,27.48
2022-08-22T18:34:30.163Z,27.48
2022-08-22T18:36:38.260Z,27.45
2022-08-22T18:38:55.662Z,27.44
2022-08-22T18:41:03.814Z,27.37
2022-08-22T18:43:14.724Z,27.31
2022-08-22T18:45:48.216Z,27.04
2022-08-22T18:47:57.080Z,27.05
2022-08-22T18:50:01.030Z,27.01
2022-08-22T18:52:06.094Z,26.96
2022-08-22T18:54:07.752Z,26.92
2022-08-22T18:56:30.949Z,26.85
2022-08-22T18:59:05.561Z,26.73
2022-08-22T19:01:23.517Z,26.67
2022-08-22T19:03:52.457Z,26.69
2022-08-22T19:06:15.635Z,26.58
2022-08-22T19:08:34.761Z,26.61
2022-08-22T19:10:56.317Z,26.59
2022-08-22T19:13:09.004Z,26.53
2022-08-22T19:15:13.788Z,26.55
2022-08-22T19:17:42.943Z,26.49
2022-08-22T19:20:19.943Z,26.47
2022-08-22T19:22:21.860Z,26.57
2022-08-22T19:24:26.614Z,26.58
2022-08-22T19:26:33.794Z,26.55
2022-08-22T19:28:37.913Z,26.56
2022-08-22T19:30:40.887Z,26.58
2022-08-22T19:32:43.906Z,26.59
2022-08-22T19:34:48.039Z,26.63
2022-08-22T19:37:32.834Z,26.54
2022-08-22T19:39:54.847Z,26.52
2022-08-22T19:41:58.370Z,26.61
2022-08-22T19:44:00.841Z,26.57
2022-08-22T19:46:09.559Z,26.56
2022-08-22T19:48:14.774Z,26.53
2022-08-22T19:50:16.872Z,26.52
2022-08-22T19:52:44.666Z,26.46
2022-08-22T19:54:49.592Z,26.47
2022-08-22T19:57:19.735Z,26.31
2022-08-22T19:59:34.298Z,26.27
2022-08-22T20:01:56.522Z,26.33
2022-08-22T20:04:48.612Z,26.26
2022-08-22T20:07:14.798Z,26.31
2022-08-22T20:09:45.936Z,26.31
2022-08-22T20:12:09.208Z,26.36
2022-08-22T20:14:28.488Z,26.37
2022-08-22T20:16:59.660Z,26.29
2022-08-22T20:19:08.358Z,26.30
2022-08-22T20:21:11.503Z,26.31
2022-08-22T20:23:25.209Z,26.26
2022-08-22T20:25:44.029Z,26.26
2022-08-22T20:27:50.622Z,26.29
2022-08-22T20:30:17.214Z,26.23
2022-08-22T20:32:23.552Z,26.27
2022-08-22T20:34:28.899Z,26.28
2022-08-22T20:36:32.061Z,26.27
2022-08-22T20:38:55.595Z,26.17
2022-08-22T20:41:24.300Z,26.16
2022-08-22T20:43:35.205Z,26.21
2022-08-22T20:45:42.523Z,26.18
2022-08-22T20:47:50.898Z,26.14
2022-08-22T20:49:57.389Z,26.15
2022-08-22T20:52:00.477Z,26.15
2022-08-22T20:54:18.890Z,26.10
2022-08-22T20:56:38.856Z,26.05
2022-08-22T20:59:00.538Z,26.05
2022-08-22T21:01:04.202Z,26.03
2022-08-22T21:03:28.394Z,25.98
2022-08-22T21:05:39.117Z,25.99
2022-08-22T21:07:46.932Z,25.96
2022-08-22T21:10:36.641Z,25.91
2022-08-22T21:12:41.284Z,25.91
2022-08-22T21:14:46.460Z,25.88
2022-08-22T21:16:49.044Z,25.89
2022-08-22T21:18:54.181Z,25.76
2022-08-22T21:21:18.777Z,25.70
2022-08-22T21:23:21.143Z,25.76
2022-08-22T21:25:26.258Z,25.76
2022-08-22T21:27:32.305Z,25.76
2022-08-22T21:29:43.982Z,25.68
2022-08-22T21:32:04.401Z,25.71
2022-08-22T21:34:27.257Z,25.64
2022-08-22T21:36:32.005Z,25.67
2022-08-22T21:38:34.630Z,25.65
2022-08-22T21:40:38.336Z,25.61
2022-08-22T21:42:43.104Z,25.61
2022-08-22T21:45:02.850Z,25.56
2022-08-22T21:47:30.658Z,25.58
2022-08-22T21:49:33.890Z,25.59
2022-08-22T21:51:45.198Z,25.54
2022-08-22T21:53:47.753Z,25.44
2022-08-22T21:56:13.299Z,25.39
2022-08-22T21:58:18.470Z,25.48
2022-08-22T22:00:48.864Z,25.44
2022-08-22T22:02:59.538Z,25.41
2022-08-22T22:05:04.856Z,25.45
2022-08-22T22:07:09.583Z,25.44
2022-08-22T22:09:15.267Z,25.32
2022-08-22T22:11:18.276Z,25.33
2022-08-22T22:13:21.165Z,25.33
2022-08-22T22:15:34.850Z,25.33
2022-08-22T22:17:37.107Z,25.33
2022-08-22T22:19:39.447Z,25.33
2022-08-22T22:21:41.725Z,25.28
2022-08-22T22:23:44.293Z,25.28
2022-08-22T22:25:47.655Z,25.20
2022-08-22T22:27:50.387Z,25.20
2022-08-22T22:29:52.774Z,25.16
2022-08-22T22:31:55.383Z,25.16
2022-08-22T22:33:57.568Z,25.15
2022-08-22T22:36:06.086Z,25.11
2022-08-22T22:38:08.786Z,25.13
2022-08-22T22:40:12.312Z,25.03
2022-08-22T22:42:15.102Z,25.08
2022-08-22T22:44:17.361Z,25.05
2022-08-22T22:46:26.947Z,25.03
2022-08-22T22:48:32.217Z,24.98
2022-08-22T22:50:38.170Z,24.97
2022-08-22T22:52:40.853Z,24.95
2022-08-22T22:54:43.212Z,24.92
2022-08-22T22:56:47.987Z,24.91
2022-08-22T22:59:00.624Z,24.88
2022-08-22T23:01:24.331Z,24.78
2022-08-22T23:03:26.996Z,24.78
2022-08-22T23:05:33.398Z,24.75
2022-08-22T23:07:36.048Z,24.76
2022-08-22T23:09:44.733Z,24.74
2022-08-22T23:11:47.984Z,24.72
2022-08-22T23:13:51.093Z,24.70
2022-08-22T23:15:53.409Z,24.66
2022-08-22T23:17:56.003Z,24.64
2022-08-22T23:20:01.488Z,24.63
2022-08-22T23:22:03.968Z,24.62
2022-08-22T23:24:07.821Z,24.60
2022-08-22T23:26:13.532Z,24.60
2022-08-22T23:28:15.878Z,24.57
2022-08-22T23:30:18.243Z,24.52
2022-08-22T23:32:20.436Z,24.48
2022-08-22T23:34:29.887Z,24.45
2022-08-22T23:36:32.769Z,24.41
2022-08-22T23:38:35.259Z,24.40
2022-08-22T23:40:37.463Z,24.39
2022-08-22T23:42:39.645Z,24.36
2022-08-22T23:44:45.472Z,24.34
2022-08-22T23:46:48.633Z,24.31
2022-08-22T23:48:51.079Z,24.30
2022-08-22T23:50:56.100Z,24.27
2022-08-22T23:52:58.320Z,24.24
2022-08-22T23:55:00.517Z,24.22
2022-08-22T23:57:12.056Z,24.21
2022-08-22T23:59:17.752Z,24.17
